<?xml version="1.0" encoding="utf-8"?>
<gpx xmlns:xsi="http://www.w3.org/2001/XMLSchema-instance" xmlns:xsd="http://www.w3.org/2001/XMLSchema" version="1.1" creator="Shapelink.com" xmlns="http://www.topografix.com/GPX/1/1" xmlns:gpxtpx="http://www.garmin.com/xmlschemas/TrackPointExtension/v1">
  <metadata>
    <name>Sykling 26.06 km, 2012-05-06</name>
    <desc></desc>
    <author><name>Mikael Blom</name></author> 
    <time>2012-05-06T09:06:34Z</time>
  </metadata>
  <trk>
    <name>Sykling 26.06 km, 2012-05-06</name>
    <trkseg>
      <trkpt lat="59.9789028" lon="17.7393046">
        <ele>40.0321</ele>
        <time>2012-05-06T09:06:34Z</time>
      </trkpt>
      <trkpt lat="59.9787884" lon="17.7392374">
        <ele>40.5128</ele>
        <time>2012-05-06T09:06:38Z</time>
      </trkpt>
      <trkpt lat="59.9784947" lon="17.7391594">
        <ele>43.3966</ele>
        <time>2012-05-06T09:06:45Z</time>
      </trkpt>
      <trkpt lat="59.9782129" lon="17.7390974">
        <ele>40.0321</ele>
        <time>2012-05-06T09:06:51Z</time>
      </trkpt>
      <trkpt lat="59.9780083" lon="17.7389778">
        <ele>40.9934</ele>
        <time>2012-05-06T09:06:55Z</time>
      </trkpt>
      <trkpt lat="59.9776921" lon="17.73887">
        <ele>42.4354</ele>
        <time>2012-05-06T09:07:01Z</time>
      </trkpt>
      <trkpt lat="59.9772993" lon="17.738989">
        <ele>36.6675</ele>
        <time>2012-05-06T09:07:07Z</time>
      </trkpt>
      <trkpt lat="59.9768804" lon="17.739207">
        <ele>34.7449</ele>
        <time>2012-05-06T09:07:13Z</time>
      </trkpt>
      <trkpt lat="59.9766105" lon="17.7393624">
        <ele>32.8223</ele>
        <time>2012-05-06T09:07:17Z</time>
      </trkpt>
      <trkpt lat="59.9763744" lon="17.7396848">
        <ele>30.4188</ele>
        <time>2012-05-06T09:07:21Z</time>
      </trkpt>
      <trkpt lat="59.9761471" lon="17.7403243">
        <ele>28.0155</ele>
        <time>2012-05-06T09:07:27Z</time>
      </trkpt>
      <trkpt lat="59.9758979" lon="17.7411844">
        <ele>27.0543</ele>
        <time>2012-05-06T09:07:35Z</time>
      </trkpt>
      <trkpt lat="59.9756651" lon="17.7421281">
        <ele>26.5736</ele>
        <time>2012-05-06T09:07:44Z</time>
      </trkpt>
      <trkpt lat="59.9754095" lon="17.7431188">
        <ele>26.5736</ele>
        <time>2012-05-06T09:07:54Z</time>
      </trkpt>
      <trkpt lat="59.9752576" lon="17.743958">
        <ele>25.1317</ele>
        <time>2012-05-06T09:08:02Z</time>
      </trkpt>
      <trkpt lat="59.975037" lon="17.7448214">
        <ele>24.651</ele>
        <time>2012-05-06T09:08:10Z</time>
      </trkpt>
      <trkpt lat="59.9747687" lon="17.7455819">
        <ele>24.651</ele>
        <time>2012-05-06T09:08:18Z</time>
      </trkpt>
      <trkpt lat="59.9744307" lon="17.746202">
        <ele>26.5736</ele>
        <time>2012-05-06T09:08:26Z</time>
      </trkpt>
      <trkpt lat="59.9740579" lon="17.7467215">
        <ele>27.5349</ele>
        <time>2012-05-06T09:08:33Z</time>
      </trkpt>
      <trkpt lat="59.9737597" lon="17.7471033">
        <ele>26.0929</ele>
        <time>2012-05-06T09:08:39Z</time>
      </trkpt>
      <trkpt lat="59.9734271" lon="17.7474301">
        <ele>25.1317</ele>
        <time>2012-05-06T09:08:45Z</time>
      </trkpt>
      <trkpt lat="59.9730419" lon="17.7478443">
        <ele>27.0543</ele>
        <time>2012-05-06T09:08:51Z</time>
      </trkpt>
      <trkpt lat="59.9727883" lon="17.7482677">
        <ele>28.4962</ele>
        <time>2012-05-06T09:08:56Z</time>
      </trkpt>
      <trkpt lat="59.972611" lon="17.7486806">
        <ele>30.4188</ele>
        <time>2012-05-06T09:09:01Z</time>
      </trkpt>
      <trkpt lat="59.9724885" lon="17.7488951">
        <ele>30.4188</ele>
        <time>2012-05-06T09:09:04Z</time>
      </trkpt>
      <trkpt lat="59.9722978" lon="17.7493363">
        <ele>30.4188</ele>
        <time>2012-05-06T09:09:10Z</time>
      </trkpt>
      <trkpt lat="59.9720631" lon="17.7498869">
        <ele>30.4188</ele>
        <time>2012-05-06T09:09:17Z</time>
      </trkpt>
      <trkpt lat="59.9717705" lon="17.7505181">
        <ele>29.9381</ele>
        <time>2012-05-06T09:09:24Z</time>
      </trkpt>
      <trkpt lat="59.9713419" lon="17.7511422">
        <ele>31.3801</ele>
        <time>2012-05-06T09:09:31Z</time>
      </trkpt>
      <trkpt lat="59.97088" lon="17.7516879">
        <ele>30.4188</ele>
        <time>2012-05-06T09:09:38Z</time>
      </trkpt>
      <trkpt lat="59.9705381" lon="17.7522645">
        <ele>30.4188</ele>
        <time>2012-05-06T09:09:44Z</time>
      </trkpt>
      <trkpt lat="59.970302" lon="17.7529091">
        <ele>30.4188</ele>
        <time>2012-05-06T09:09:50Z</time>
      </trkpt>
      <trkpt lat="59.9700416" lon="17.7536517">
        <ele>29.4575</ele>
        <time>2012-05-06T09:09:57Z</time>
      </trkpt>
      <trkpt lat="59.9697449" lon="17.7543087">
        <ele>28.9769</ele>
        <time>2012-05-06T09:10:04Z</time>
      </trkpt>
      <trkpt lat="59.9694024" lon="17.755033">
        <ele>29.9381</ele>
        <time>2012-05-06T09:10:12Z</time>
      </trkpt>
      <trkpt lat="59.9691035" lon="17.7556618">
        <ele>29.4575</ele>
        <time>2012-05-06T09:10:19Z</time>
      </trkpt>
      <trkpt lat="59.9687453" lon="17.7563668">
        <ele>28.0155</ele>
        <time>2012-05-06T09:10:28Z</time>
      </trkpt>
      <trkpt lat="59.9684308" lon="17.7568646">
        <ele>27.0543</ele>
        <time>2012-05-06T09:10:35Z</time>
      </trkpt>
      <trkpt lat="59.9680051" lon="17.7574267">
        <ele>26.5736</ele>
        <time>2012-05-06T09:10:43Z</time>
      </trkpt>
      <trkpt lat="59.9675552" lon="17.7579641">
        <ele>28.0155</ele>
        <time>2012-05-06T09:10:50Z</time>
      </trkpt>
      <trkpt lat="59.9670888" lon="17.758401">
        <ele>28.0155</ele>
        <time>2012-05-06T09:10:57Z</time>
      </trkpt>
      <trkpt lat="59.9665758" lon="17.7588539">
        <ele>28.9769</ele>
        <time>2012-05-06T09:11:05Z</time>
      </trkpt>
      <trkpt lat="59.9662249" lon="17.7593619">
        <ele>28.0155</ele>
        <time>2012-05-06T09:11:12Z</time>
      </trkpt>
      <trkpt lat="59.9659153" lon="17.759911">
        <ele>27.0543</ele>
        <time>2012-05-06T09:11:19Z</time>
      </trkpt>
      <trkpt lat="59.9655919" lon="17.7604801">
        <ele>28.4962</ele>
        <time>2012-05-06T09:11:27Z</time>
      </trkpt>
      <trkpt lat="59.9653405" lon="17.7609217">
        <ele>28.0155</ele>
        <time>2012-05-06T09:11:33Z</time>
      </trkpt>
      <trkpt lat="59.965096" lon="17.7615671">
        <ele>28.0155</ele>
        <time>2012-05-06T09:11:40Z</time>
      </trkpt>
      <trkpt lat="59.9648058" lon="17.7623353">
        <ele>26.5736</ele>
        <time>2012-05-06T09:11:48Z</time>
      </trkpt>
      <trkpt lat="59.9645613" lon="17.7631474">
        <ele>25.6123</ele>
        <time>2012-05-06T09:11:56Z</time>
      </trkpt>
      <trkpt lat="59.9643182" lon="17.7641143">
        <ele>24.651</ele>
        <time>2012-05-06T09:12:05Z</time>
      </trkpt>
      <trkpt lat="59.9641173" lon="17.7649466">
        <ele>24.651</ele>
        <time>2012-05-06T09:12:13Z</time>
      </trkpt>
      <trkpt lat="59.9640436" lon="17.7655542">
        <ele>28.9769</ele>
        <time>2012-05-06T09:12:19Z</time>
      </trkpt>
      <trkpt lat="59.964034" lon="17.7658371">
        <ele>32.8223</ele>
        <time>2012-05-06T09:12:22Z</time>
      </trkpt>
      <trkpt lat="59.9640235" lon="17.7660738">
        <ele>33.7834</ele>
        <time>2012-05-06T09:12:25Z</time>
      </trkpt>
      <trkpt lat="59.9640344" lon="17.7665512">
        <ele>36.6675</ele>
        <time>2012-05-06T09:12:31Z</time>
      </trkpt>
      <trkpt lat="59.9640339" lon="17.766829">
        <ele>35.2255</ele>
        <time>2012-05-06T09:12:34Z</time>
      </trkpt>
      <trkpt lat="59.9639599" lon="17.7675335">
        <ele>35.2255</ele>
        <time>2012-05-06T09:12:41Z</time>
      </trkpt>
      <trkpt lat="59.9637631" lon="17.7684007">
        <ele>33.7834</ele>
        <time>2012-05-06T09:12:49Z</time>
      </trkpt>
      <trkpt lat="59.9634829" lon="17.7694004">
        <ele>33.3029</ele>
        <time>2012-05-06T09:12:58Z</time>
      </trkpt>
      <trkpt lat="59.9634274" lon="17.7699811">
        <ele>33.7834</ele>
        <time>2012-05-06T09:13:03Z</time>
      </trkpt>
      <trkpt lat="59.9634912" lon="17.770869">
        <ele>33.3029</ele>
        <time>2012-05-06T09:13:10Z</time>
      </trkpt>
      <trkpt lat="59.9636688" lon="17.7716982">
        <ele>33.7834</ele>
        <time>2012-05-06T09:13:16Z</time>
      </trkpt>
      <trkpt lat="59.9638519" lon="17.7727219">
        <ele>32.3416</ele>
        <time>2012-05-06T09:13:23Z</time>
      </trkpt>
      <trkpt lat="59.9638164" lon="17.7734726">
        <ele>32.8223</ele>
        <time>2012-05-06T09:13:28Z</time>
      </trkpt>
      <trkpt lat="59.9636785" lon="17.7742863">
        <ele>33.3029</ele>
        <time>2012-05-06T09:13:34Z</time>
      </trkpt>
      <trkpt lat="59.9635419" lon="17.7750844">
        <ele>32.8223</ele>
        <time>2012-05-06T09:13:40Z</time>
      </trkpt>
      <trkpt lat="59.9633321" lon="17.7757443">
        <ele>32.8223</ele>
        <time>2012-05-06T09:13:46Z</time>
      </trkpt>
      <trkpt lat="59.9630939" lon="17.7765174">
        <ele>32.3416</ele>
        <time>2012-05-06T09:13:54Z</time>
      </trkpt>
      <trkpt lat="59.962881" lon="17.77714">
        <ele>31.3801</ele>
        <time>2012-05-06T09:14:00Z</time>
      </trkpt>
      <trkpt lat="59.9624977" lon="17.7779471">
        <ele>30.4188</ele>
        <time>2012-05-06T09:14:09Z</time>
      </trkpt>
      <trkpt lat="59.9621001" lon="17.7788753">
        <ele>30.4188</ele>
        <time>2012-05-06T09:14:19Z</time>
      </trkpt>
      <trkpt lat="59.9617579" lon="17.7796268">
        <ele>31.3801</ele>
        <time>2012-05-06T09:14:28Z</time>
      </trkpt>
      <trkpt lat="59.961431" lon="17.7803505">
        <ele>30.8995</ele>
        <time>2012-05-06T09:14:36Z</time>
      </trkpt>
      <trkpt lat="59.960972" lon="17.7811863">
        <ele>30.8995</ele>
        <time>2012-05-06T09:14:46Z</time>
      </trkpt>
      <trkpt lat="59.9605204" lon="17.7820534">
        <ele>31.3801</ele>
        <time>2012-05-06T09:14:56Z</time>
      </trkpt>
      <trkpt lat="59.9603255" lon="17.7826246">
        <ele>31.8607</ele>
        <time>2012-05-06T09:15:02Z</time>
      </trkpt>
      <trkpt lat="59.9600304" lon="17.7835192">
        <ele>28.9769</ele>
        <time>2012-05-06T09:15:11Z</time>
      </trkpt>
      <trkpt lat="59.9597506" lon="17.7841704">
        <ele>28.4962</ele>
        <time>2012-05-06T09:15:18Z</time>
      </trkpt>
      <trkpt lat="59.9593898" lon="17.7847575">
        <ele>27.5349</ele>
        <time>2012-05-06T09:15:26Z</time>
      </trkpt>
      <trkpt lat="59.9590617" lon="17.7851379">
        <ele>28.4962</ele>
        <time>2012-05-06T09:15:32Z</time>
      </trkpt>
      <trkpt lat="59.9586316" lon="17.7855048">
        <ele>30.4188</ele>
        <time>2012-05-06T09:15:40Z</time>
      </trkpt>
      <trkpt lat="59.958268" lon="17.785923">
        <ele>30.8995</ele>
        <time>2012-05-06T09:15:47Z</time>
      </trkpt>
      <trkpt lat="59.9578549" lon="17.7864239">
        <ele>30.8995</ele>
        <time>2012-05-06T09:15:55Z</time>
      </trkpt>
      <trkpt lat="59.9576495" lon="17.786919">
        <ele>31.8607</ele>
        <time>2012-05-06T09:16:01Z</time>
      </trkpt>
      <trkpt lat="59.9574998" lon="17.7876317">
        <ele>31.3801</ele>
        <time>2012-05-06T09:16:08Z</time>
      </trkpt>
      <trkpt lat="59.9572579" lon="17.7885232">
        <ele>29.4575</ele>
        <time>2012-05-06T09:16:17Z</time>
      </trkpt>
      <trkpt lat="59.9570367" lon="17.7890024">
        <ele>29.4575</ele>
        <time>2012-05-06T09:16:22Z</time>
      </trkpt>
      <trkpt lat="59.9567102" lon="17.7894324">
        <ele>28.9769</ele>
        <time>2012-05-06T09:16:28Z</time>
      </trkpt>
      <trkpt lat="59.9565742" lon="17.7898049">
        <ele>29.4575</ele>
        <time>2012-05-06T09:16:32Z</time>
      </trkpt>
      <trkpt lat="59.9565812" lon="17.79017">
        <ele>30.8995</ele>
        <time>2012-05-06T09:16:35Z</time>
      </trkpt>
      <trkpt lat="59.9566021" lon="17.7902824">
        <ele>31.3801</ele>
        <time>2012-05-06T09:16:36Z</time>
      </trkpt>
      <trkpt lat="59.9567402" lon="17.7910859">
        <ele>34.2642</ele>
        <time>2012-05-06T09:16:44Z</time>
      </trkpt>
      <trkpt lat="59.9567128" lon="17.7915194">
        <ele>33.3029</ele>
        <time>2012-05-06T09:16:48Z</time>
      </trkpt>
      <trkpt lat="59.9565124" lon="17.7926342">
        <ele>31.8607</ele>
        <time>2012-05-06T09:16:58Z</time>
      </trkpt>
      <trkpt lat="59.9562877" lon="17.7937737">
        <ele>29.9381</ele>
        <time>2012-05-06T09:17:08Z</time>
      </trkpt>
      <trkpt lat="59.9560069" lon="17.7949399">
        <ele>28.9769</ele>
        <time>2012-05-06T09:17:18Z</time>
      </trkpt>
      <trkpt lat="59.9558293" lon="17.7957962">
        <ele>28.4962</ele>
        <time>2012-05-06T09:17:26Z</time>
      </trkpt>
      <trkpt lat="59.9556433" lon="17.7968181">
        <ele>27.5349</ele>
        <time>2012-05-06T09:17:35Z</time>
      </trkpt>
      <trkpt lat="59.9554489" lon="17.7975299">
        <ele>27.5349</ele>
        <time>2012-05-06T09:17:42Z</time>
      </trkpt>
      <trkpt lat="59.9551932" lon="17.7983449">
        <ele>28.0155</ele>
        <time>2012-05-06T09:17:51Z</time>
      </trkpt>
      <trkpt lat="59.9549124" lon="17.7989467">
        <ele>28.4962</ele>
        <time>2012-05-06T09:17:59Z</time>
      </trkpt>
      <trkpt lat="59.9546409" lon="17.7994542">
        <ele>27.5349</ele>
        <time>2012-05-06T09:18:05Z</time>
      </trkpt>
      <trkpt lat="59.9543404" lon="17.8001346">
        <ele>26.5736</ele>
        <time>2012-05-06T09:18:12Z</time>
      </trkpt>
      <trkpt lat="59.9540408" lon="17.8008851">
        <ele>26.0929</ele>
        <time>2012-05-06T09:18:20Z</time>
      </trkpt>
      <trkpt lat="59.9538443" lon="17.8014424">
        <ele>28.4962</ele>
        <time>2012-05-06T09:18:26Z</time>
      </trkpt>
      <trkpt lat="59.9537365" lon="17.8017855">
        <ele>32.3416</ele>
        <time>2012-05-06T09:18:30Z</time>
      </trkpt>
      <trkpt lat="59.9535922" lon="17.8023764">
        <ele>32.8223</ele>
        <time>2012-05-06T09:18:38Z</time>
      </trkpt>
      <trkpt lat="59.9534511" lon="17.802983">
        <ele>32.8223</ele>
        <time>2012-05-06T09:18:46Z</time>
      </trkpt>
      <trkpt lat="59.9532629" lon="17.8035138">
        <ele>30.4188</ele>
        <time>2012-05-06T09:18:53Z</time>
      </trkpt>
      <trkpt lat="59.9531491" lon="17.8037396">
        <ele>29.4575</ele>
        <time>2012-05-06T09:18:56Z</time>
      </trkpt>
      <trkpt lat="59.9529506" lon="17.804208">
        <ele>28.9769</ele>
        <time>2012-05-06T09:19:01Z</time>
      </trkpt>
      <trkpt lat="59.9528096" lon="17.8049466">
        <ele>27.5349</ele>
        <time>2012-05-06T09:19:07Z</time>
      </trkpt>
      <trkpt lat="59.9526521" lon="17.8061331">
        <ele>27.5349</ele>
        <time>2012-05-06T09:19:16Z</time>
      </trkpt>
      <trkpt lat="59.9524811" lon="17.8068758">
        <ele>26.0929</ele>
        <time>2012-05-06T09:19:22Z</time>
      </trkpt>
      <trkpt lat="59.9521682" lon="17.8080692">
        <ele>24.651</ele>
        <time>2012-05-06T09:19:31Z</time>
      </trkpt>
      <trkpt lat="59.9518333" lon="17.8093326">
        <ele>24.1703</ele>
        <time>2012-05-06T09:19:41Z</time>
      </trkpt>
      <trkpt lat="59.9515996" lon="17.8102508">
        <ele>23.6896</ele>
        <time>2012-05-06T09:19:49Z</time>
      </trkpt>
      <trkpt lat="59.9514183" lon="17.8112695">
        <ele>24.1703</ele>
        <time>2012-05-06T09:19:58Z</time>
      </trkpt>
      <trkpt lat="59.9513438" lon="17.8122223">
        <ele>24.1703</ele>
        <time>2012-05-06T09:20:06Z</time>
      </trkpt>
      <trkpt lat="59.9513298" lon="17.8135181">
        <ele>24.651</ele>
        <time>2012-05-06T09:20:16Z</time>
      </trkpt>
      <trkpt lat="59.9513158" lon="17.8146985">
        <ele>24.1703</ele>
        <time>2012-05-06T09:20:25Z</time>
      </trkpt>
      <trkpt lat="59.9512681" lon="17.8158777">
        <ele>23.6896</ele>
        <time>2012-05-06T09:20:34Z</time>
      </trkpt>
      <trkpt lat="59.9511433" lon="17.8172421">
        <ele>24.1703</ele>
        <time>2012-05-06T09:20:45Z</time>
      </trkpt>
      <trkpt lat="59.9510361" lon="17.8182943">
        <ele>24.651</ele>
        <time>2012-05-06T09:20:54Z</time>
      </trkpt>
      <trkpt lat="59.9509697" lon="17.8192447">
        <ele>24.651</ele>
        <time>2012-05-06T09:21:02Z</time>
      </trkpt>
      <trkpt lat="59.9509375" lon="17.8204327">
        <ele>23.6896</ele>
        <time>2012-05-06T09:21:11Z</time>
      </trkpt>
      <trkpt lat="59.9508238" lon="17.8218047">
        <ele>22.7283</ele>
        <time>2012-05-06T09:21:21Z</time>
      </trkpt>
      <trkpt lat="59.9506894" lon="17.8230295">
        <ele>22.7283</ele>
        <time>2012-05-06T09:21:30Z</time>
      </trkpt>
      <trkpt lat="59.9505714" lon="17.8239345">
        <ele>22.7283</ele>
        <time>2012-05-06T09:21:37Z</time>
      </trkpt>
      <trkpt lat="59.9503835" lon="17.824812">
        <ele>22.2476</ele>
        <time>2012-05-06T09:21:44Z</time>
      </trkpt>
      <trkpt lat="59.9501393" lon="17.8259138">
        <ele>22.2476</ele>
        <time>2012-05-06T09:21:53Z</time>
      </trkpt>
      <trkpt lat="59.9500473" lon="17.8265481">
        <ele>22.2476</ele>
        <time>2012-05-06T09:21:58Z</time>
      </trkpt>
      <trkpt lat="59.9500113" lon="17.8274523">
        <ele>22.7283</ele>
        <time>2012-05-06T09:22:05Z</time>
      </trkpt>
      <trkpt lat="59.9500176" lon="17.8288318">
        <ele>23.209</ele>
        <time>2012-05-06T09:22:16Z</time>
      </trkpt>
      <trkpt lat="59.9499999" lon="17.8293042">
        <ele>23.209</ele>
        <time>2012-05-06T09:22:20Z</time>
      </trkpt>
      <trkpt lat="59.9499021" lon="17.8296647">
        <ele>24.1703</ele>
        <time>2012-05-06T09:22:24Z</time>
      </trkpt>
      <trkpt lat="59.9497577" lon="17.8296273">
        <ele>24.651</ele>
        <time>2012-05-06T09:22:27Z</time>
      </trkpt>
      <trkpt lat="59.9497162" lon="17.8295637">
        <ele>24.651</ele>
        <time>2012-05-06T09:22:28Z</time>
      </trkpt>
      <trkpt lat="59.9493127" lon="17.8289487">
        <ele>23.6896</ele>
        <time>2012-05-06T09:22:37Z</time>
      </trkpt>
      <trkpt lat="59.9488485" lon="17.828406">
        <ele>24.1703</ele>
        <time>2012-05-06T09:22:46Z</time>
      </trkpt>
      <trkpt lat="59.9484248" lon="17.8279593">
        <ele>25.1317</ele>
        <time>2012-05-06T09:22:55Z</time>
      </trkpt>
      <trkpt lat="59.9480195" lon="17.8275419">
        <ele>25.6123</ele>
        <time>2012-05-06T09:23:04Z</time>
      </trkpt>
      <trkpt lat="59.947568" lon="17.8270876">
        <ele>24.1703</ele>
        <time>2012-05-06T09:23:14Z</time>
      </trkpt>
      <trkpt lat="59.9470738" lon="17.8265866">
        <ele>23.209</ele>
        <time>2012-05-06T09:23:25Z</time>
      </trkpt>
      <trkpt lat="59.9466281" lon="17.8261356">
        <ele>23.6896</ele>
        <time>2012-05-06T09:23:36Z</time>
      </trkpt>
      <trkpt lat="59.9462047" lon="17.8257034">
        <ele>24.1703</ele>
        <time>2012-05-06T09:23:47Z</time>
      </trkpt>
      <trkpt lat="59.9457927" lon="17.825279">
        <ele>24.1703</ele>
        <time>2012-05-06T09:23:57Z</time>
      </trkpt>
      <trkpt lat="59.9452789" lon="17.8247494">
        <ele>25.1317</ele>
        <time>2012-05-06T09:24:09Z</time>
      </trkpt>
      <trkpt lat="59.9447864" lon="17.8242391">
        <ele>25.1317</ele>
        <time>2012-05-06T09:24:21Z</time>
      </trkpt>
      <trkpt lat="59.944301" lon="17.8237049">
        <ele>24.651</ele>
        <time>2012-05-06T09:24:32Z</time>
      </trkpt>
      <trkpt lat="59.9438861" lon="17.8231992">
        <ele>23.6896</ele>
        <time>2012-05-06T09:24:41Z</time>
      </trkpt>
      <trkpt lat="59.9433351" lon="17.822508">
        <ele>22.7283</ele>
        <time>2012-05-06T09:24:52Z</time>
      </trkpt>
      <trkpt lat="59.9427216" lon="17.8217433">
        <ele>20.8057</ele>
        <time>2012-05-06T09:25:03Z</time>
      </trkpt>
      <trkpt lat="59.9421419" lon="17.8210217">
        <ele>19.3638</ele>
        <time>2012-05-06T09:25:13Z</time>
      </trkpt>
      <trkpt lat="59.9416103" lon="17.8203616">
        <ele>18.8831</ele>
        <time>2012-05-06T09:25:22Z</time>
      </trkpt>
      <trkpt lat="59.9412524" lon="17.8199142">
        <ele>19.3638</ele>
        <time>2012-05-06T09:25:29Z</time>
      </trkpt>
      <trkpt lat="59.9409064" lon="17.8194904">
        <ele>20.325</ele>
        <time>2012-05-06T09:25:37Z</time>
      </trkpt>
      <trkpt lat="59.9404407" lon="17.8188989">
        <ele>22.2476</ele>
        <time>2012-05-06T09:25:49Z</time>
      </trkpt>
      <trkpt lat="59.9401769" lon="17.8185589">
        <ele>22.7283</ele>
        <time>2012-05-06T09:25:57Z</time>
      </trkpt>
      <trkpt lat="59.9399558" lon="17.818455">
        <ele>23.6896</ele>
        <time>2012-05-06T09:26:03Z</time>
      </trkpt>
      <trkpt lat="59.9397129" lon="17.8181204">
        <ele>24.651</ele>
        <time>2012-05-06T09:26:11Z</time>
      </trkpt>
      <trkpt lat="59.9395374" lon="17.8180163">
        <ele>26.0929</ele>
        <time>2012-05-06T09:26:16Z</time>
      </trkpt>
      <trkpt lat="59.9393948" lon="17.8182121">
        <ele>26.0929</ele>
        <time>2012-05-06T09:26:20Z</time>
      </trkpt>
      <trkpt lat="59.9391092" lon="17.8187952">
        <ele>25.6123</ele>
        <time>2012-05-06T09:26:28Z</time>
      </trkpt>
      <trkpt lat="59.9386877" lon="17.8196817">
        <ele>26.0929</ele>
        <time>2012-05-06T09:26:40Z</time>
      </trkpt>
      <trkpt lat="59.938462" lon="17.8201865">
        <ele>26.0929</ele>
        <time>2012-05-06T09:26:46Z</time>
      </trkpt>
      <trkpt lat="59.938021" lon="17.8211924">
        <ele>27.5349</ele>
        <time>2012-05-06T09:26:56Z</time>
      </trkpt>
      <trkpt lat="59.9377016" lon="17.8220225">
        <ele>28.9769</ele>
        <time>2012-05-06T09:27:04Z</time>
      </trkpt>
      <trkpt lat="59.9374041" lon="17.8228633">
        <ele>30.8995</ele>
        <time>2012-05-06T09:27:12Z</time>
      </trkpt>
      <trkpt lat="59.9369883" lon="17.8239469">
        <ele>32.8223</ele>
        <time>2012-05-06T09:27:23Z</time>
      </trkpt>
      <trkpt lat="59.9369042" lon="17.8241384">
        <ele>32.3416</ele>
        <time>2012-05-06T09:27:25Z</time>
      </trkpt>
      <trkpt lat="59.9366096" lon="17.8245877">
        <ele>30.8995</ele>
        <time>2012-05-06T09:27:31Z</time>
      </trkpt>
      <trkpt lat="59.9362228" lon="17.8248178">
        <ele>30.4188</ele>
        <time>2012-05-06T09:27:38Z</time>
      </trkpt>
      <trkpt lat="59.9357526" lon="17.8250527">
        <ele>30.8995</ele>
        <time>2012-05-06T09:27:46Z</time>
      </trkpt>
      <trkpt lat="59.9352455" lon="17.8252967">
        <ele>30.8995</ele>
        <time>2012-05-06T09:27:55Z</time>
      </trkpt>
      <trkpt lat="59.9347325" lon="17.8255372">
        <ele>31.3801</ele>
        <time>2012-05-06T09:28:05Z</time>
      </trkpt>
      <trkpt lat="59.9342891" lon="17.8257184">
        <ele>31.8607</ele>
        <time>2012-05-06T09:28:14Z</time>
      </trkpt>
      <trkpt lat="59.93384" lon="17.825867">
        <ele>30.4188</ele>
        <time>2012-05-06T09:28:24Z</time>
      </trkpt>
      <trkpt lat="59.9335315" lon="17.826085">
        <ele>30.4188</ele>
        <time>2012-05-06T09:28:31Z</time>
      </trkpt>
      <trkpt lat="59.9332159" lon="17.8264152">
        <ele>28.9769</ele>
        <time>2012-05-06T09:28:38Z</time>
      </trkpt>
      <trkpt lat="59.9328674" lon="17.826937">
        <ele>28.0155</ele>
        <time>2012-05-06T09:28:46Z</time>
      </trkpt>
      <trkpt lat="59.9323981" lon="17.8277081">
        <ele>28.0155</ele>
        <time>2012-05-06T09:28:57Z</time>
      </trkpt>
      <trkpt lat="59.9320905" lon="17.8283422">
        <ele>25.6123</ele>
        <time>2012-05-06T09:29:06Z</time>
      </trkpt>
      <trkpt lat="59.9319199" lon="17.8289028">
        <ele>22.7283</ele>
        <time>2012-05-06T09:29:13Z</time>
      </trkpt>
      <trkpt lat="59.9317804" lon="17.8294213">
        <ele>20.8057</ele>
        <time>2012-05-06T09:29:20Z</time>
      </trkpt>
      <trkpt lat="59.9316023" lon="17.8300639">
        <ele>20.8057</ele>
        <time>2012-05-06T09:29:29Z</time>
      </trkpt>
      <trkpt lat="59.9313999" lon="17.8306116">
        <ele>19.3638</ele>
        <time>2012-05-06T09:29:36Z</time>
      </trkpt>
      <trkpt lat="59.9310762" lon="17.8313193">
        <ele>24.651</ele>
        <time>2012-05-06T09:29:44Z</time>
      </trkpt>
      <trkpt lat="59.9306673" lon="17.8319849">
        <ele>26.5736</ele>
        <time>2012-05-06T09:29:54Z</time>
      </trkpt>
      <trkpt lat="59.9304265" lon="17.8323589">
        <ele>25.6123</ele>
        <time>2012-05-06T09:30:00Z</time>
      </trkpt>
      <trkpt lat="59.9301347" lon="17.8327924">
        <ele>23.6896</ele>
        <time>2012-05-06T09:30:06Z</time>
      </trkpt>
      <trkpt lat="59.9297578" lon="17.8333995">
        <ele>23.209</ele>
        <time>2012-05-06T09:30:14Z</time>
      </trkpt>
      <trkpt lat="59.92944" lon="17.833903">
        <ele>28.4962</ele>
        <time>2012-05-06T09:30:21Z</time>
      </trkpt>
      <trkpt lat="59.9290292" lon="17.8344273">
        <ele>30.4188</ele>
        <time>2012-05-06T09:30:29Z</time>
      </trkpt>
      <trkpt lat="59.9286061" lon="17.8350561">
        <ele>28.0155</ele>
        <time>2012-05-06T09:30:38Z</time>
      </trkpt>
      <trkpt lat="59.9281559" lon="17.8357206">
        <ele>27.0543</ele>
        <time>2012-05-06T09:30:47Z</time>
      </trkpt>
      <trkpt lat="59.9276672" lon="17.8364698">
        <ele>27.5349</ele>
        <time>2012-05-06T09:30:57Z</time>
      </trkpt>
      <trkpt lat="59.9273151" lon="17.8369135">
        <ele>25.6123</ele>
        <time>2012-05-06T09:31:04Z</time>
      </trkpt>
      <trkpt lat="59.9270148" lon="17.837321">
        <ele>25.1317</ele>
        <time>2012-05-06T09:31:10Z</time>
      </trkpt>
      <trkpt lat="59.9268028" lon="17.837526">
        <ele>23.6896</ele>
        <time>2012-05-06T09:31:14Z</time>
      </trkpt>
      <trkpt lat="59.9265524" lon="17.8377667">
        <ele>23.6896</ele>
        <time>2012-05-06T09:31:18Z</time>
      </trkpt>
      <trkpt lat="59.9262633" lon="17.8383104">
        <ele>23.209</ele>
        <time>2012-05-06T09:31:23Z</time>
      </trkpt>
      <trkpt lat="59.9259089" lon="17.8390482">
        <ele>19.8444</ele>
        <time>2012-05-06T09:31:30Z</time>
      </trkpt>
      <trkpt lat="59.9256572" lon="17.8392751">
        <ele>18.4023</ele>
        <time>2012-05-06T09:31:34Z</time>
      </trkpt>
      <trkpt lat="59.9254692" lon="17.8392684">
        <ele>17.9218</ele>
        <time>2012-05-06T09:31:37Z</time>
      </trkpt>
      <trkpt lat="59.9250666" lon="17.839225">
        <ele>18.4023</ele>
        <time>2012-05-06T09:31:44Z</time>
      </trkpt>
      <trkpt lat="59.9244918" lon="17.8393052">
        <ele>17.4412</ele>
        <time>2012-05-06T09:31:54Z</time>
      </trkpt>
      <trkpt lat="59.9239933" lon="17.8394566">
        <ele>18.4023</ele>
        <time>2012-05-06T09:32:03Z</time>
      </trkpt>
      <trkpt lat="59.9234606" lon="17.839711">
        <ele>18.8831</ele>
        <time>2012-05-06T09:32:13Z</time>
      </trkpt>
      <trkpt lat="59.9230253" lon="17.8399446">
        <ele>18.4023</ele>
        <time>2012-05-06T09:32:21Z</time>
      </trkpt>
      <trkpt lat="59.9223756" lon="17.8403066">
        <ele>18.4023</ele>
        <time>2012-05-06T09:32:33Z</time>
      </trkpt>
      <trkpt lat="59.9218638" lon="17.8404858">
        <ele>18.8831</ele>
        <time>2012-05-06T09:32:42Z</time>
      </trkpt>
      <trkpt lat="59.9213483" lon="17.8406051">
        <ele>19.3638</ele>
        <time>2012-05-06T09:32:51Z</time>
      </trkpt>
      <trkpt lat="59.9207626" lon="17.8406325">
        <ele>20.325</ele>
        <time>2012-05-06T09:33:01Z</time>
      </trkpt>
      <trkpt lat="59.9202308" lon="17.8406556">
        <ele>21.767</ele>
        <time>2012-05-06T09:33:11Z</time>
      </trkpt>
      <trkpt lat="59.9198447" lon="17.8406745">
        <ele>20.325</ele>
        <time>2012-05-06T09:33:18Z</time>
      </trkpt>
      <trkpt lat="59.9194339" lon="17.8408696">
        <ele>19.8444</ele>
        <time>2012-05-06T09:33:25Z</time>
      </trkpt>
      <trkpt lat="59.918948" lon="17.8411986">
        <ele>17.9218</ele>
        <time>2012-05-06T09:33:34Z</time>
      </trkpt>
      <trkpt lat="59.9184765" lon="17.8415686">
        <ele>16.4797</ele>
        <time>2012-05-06T09:33:43Z</time>
      </trkpt>
      <trkpt lat="59.9180548" lon="17.8419766">
        <ele>17.4412</ele>
        <time>2012-05-06T09:33:52Z</time>
      </trkpt>
      <trkpt lat="59.917627" lon="17.8424169">
        <ele>17.4412</ele>
        <time>2012-05-06T09:34:02Z</time>
      </trkpt>
      <trkpt lat="59.9172736" lon="17.8426953">
        <ele>16.9604</ele>
        <time>2012-05-06T09:34:09Z</time>
      </trkpt>
      <trkpt lat="59.9170669" lon="17.8428563">
        <ele>16.9604</ele>
        <time>2012-05-06T09:34:13Z</time>
      </trkpt>
      <trkpt lat="59.9168593" lon="17.8428355">
        <ele>17.9218</ele>
        <time>2012-05-06T09:34:17Z</time>
      </trkpt>
      <trkpt lat="59.9167662" lon="17.8427082">
        <ele>17.4412</ele>
        <time>2012-05-06T09:34:19Z</time>
      </trkpt>
      <trkpt lat="59.9163297" lon="17.8420126">
        <ele>15.999</ele>
        <time>2012-05-06T09:34:28Z</time>
      </trkpt>
      <trkpt lat="59.916276" lon="17.841941">
        <ele>15.5184</ele>
        <time>2012-05-06T09:34:29Z</time>
      </trkpt>
      <trkpt lat="59.9159839" lon="17.841717">
        <ele>16.4797</ele>
        <time>2012-05-06T09:34:34Z</time>
      </trkpt>
      <trkpt lat="59.9153926" lon="17.8416354">
        <ele>21.767</ele>
        <time>2012-05-06T09:34:44Z</time>
      </trkpt>
      <trkpt lat="59.9152058" lon="17.8416245">
        <ele>21.767</ele>
        <time>2012-05-06T09:34:47Z</time>
      </trkpt>
      <trkpt lat="59.9147478" lon="17.8417991">
        <ele>23.209</ele>
        <time>2012-05-06T09:34:54Z</time>
      </trkpt>
      <trkpt lat="59.914449" lon="17.8421265">
        <ele>21.2864</ele>
        <time>2012-05-06T09:34:59Z</time>
      </trkpt>
      <trkpt lat="59.9139122" lon="17.8427594">
        <ele>17.9218</ele>
        <time>2012-05-06T09:35:08Z</time>
      </trkpt>
      <trkpt lat="59.9134906" lon="17.843074">
        <ele>16.9604</ele>
        <time>2012-05-06T09:35:15Z</time>
      </trkpt>
      <trkpt lat="59.9130939" lon="17.8432061">
        <ele>17.4412</ele>
        <time>2012-05-06T09:35:22Z</time>
      </trkpt>
      <trkpt lat="59.9127017" lon="17.8433728">
        <ele>17.4412</ele>
        <time>2012-05-06T09:35:30Z</time>
      </trkpt>
      <trkpt lat="59.9123826" lon="17.8436871">
        <ele>17.4412</ele>
        <time>2012-05-06T09:35:37Z</time>
      </trkpt>
      <trkpt lat="59.9120005" lon="17.8440168">
        <ele>15.0377</ele>
        <time>2012-05-06T09:35:44Z</time>
      </trkpt>
      <trkpt lat="59.9116218" lon="17.8441249">
        <ele>13.1151</ele>
        <time>2012-05-06T09:35:50Z</time>
      </trkpt>
      <trkpt lat="59.9111036" lon="17.8440852">
        <ele>11.1925</ele>
        <time>2012-05-06T09:35:58Z</time>
      </trkpt>
      <trkpt lat="59.9108157" lon="17.8439166">
        <ele>12.6344</ele>
        <time>2012-05-06T09:36:03Z</time>
      </trkpt>
      <trkpt lat="59.910435" lon="17.8436453">
        <ele>15.5184</ele>
        <time>2012-05-06T09:36:11Z</time>
      </trkpt>
      <trkpt lat="59.9100786" lon="17.8433619">
        <ele>16.9604</ele>
        <time>2012-05-06T09:36:19Z</time>
      </trkpt>
      <trkpt lat="59.9098293" lon="17.8431283">
        <ele>18.8831</ele>
        <time>2012-05-06T09:36:25Z</time>
      </trkpt>
      <trkpt lat="59.9096859" lon="17.8429569">
        <ele>18.4023</ele>
        <time>2012-05-06T09:36:29Z</time>
      </trkpt>
      <trkpt lat="59.9096015" lon="17.8426026">
        <ele>17.4412</ele>
        <time>2012-05-06T09:36:33Z</time>
      </trkpt>
      <trkpt lat="59.9096118" lon="17.8423896">
        <ele>16.9604</ele>
        <time>2012-05-06T09:36:35Z</time>
      </trkpt>
      <trkpt lat="59.9096541" lon="17.8418151">
        <ele>14.557</ele>
        <time>2012-05-06T09:36:40Z</time>
      </trkpt>
      <trkpt lat="59.9096206" lon="17.8411541">
        <ele>12.6344</ele>
        <time>2012-05-06T09:36:45Z</time>
      </trkpt>
      <trkpt lat="59.9095546" lon="17.8407894">
        <ele>11.6732</ele>
        <time>2012-05-06T09:36:48Z</time>
      </trkpt>
      <trkpt lat="59.9092778" lon="17.8399958">
        <ele>10.2312</ele>
        <time>2012-05-06T09:36:56Z</time>
      </trkpt>
      <trkpt lat="59.909072" lon="17.8394271">
        <ele>10.7118</ele>
        <time>2012-05-06T09:37:03Z</time>
      </trkpt>
      <trkpt lat="59.9089741" lon="17.8391781">
        <ele>11.6732</ele>
        <time>2012-05-06T09:37:07Z</time>
      </trkpt>
      <trkpt lat="59.9087742" lon="17.8388141">
        <ele>14.0764</ele>
        <time>2012-05-06T09:37:15Z</time>
      </trkpt>
      <trkpt lat="59.9086349" lon="17.8386506">
        <ele>15.0377</ele>
        <time>2012-05-06T09:37:21Z</time>
      </trkpt>
      <trkpt lat="59.9084328" lon="17.838576">
        <ele>17.4412</ele>
        <time>2012-05-06T09:37:28Z</time>
      </trkpt>
      <trkpt lat="59.9082195" lon="17.8385878">
        <ele>20.8057</ele>
        <time>2012-05-06T09:37:35Z</time>
      </trkpt>
      <trkpt lat="59.9080069" lon="17.8387454">
        <ele>22.2476</ele>
        <time>2012-05-06T09:37:42Z</time>
      </trkpt>
      <trkpt lat="59.9077554" lon="17.8390366">
        <ele>24.1703</ele>
        <time>2012-05-06T09:37:51Z</time>
      </trkpt>
      <trkpt lat="59.9075298" lon="17.8392938">
        <ele>25.6123</ele>
        <time>2012-05-06T09:37:59Z</time>
      </trkpt>
      <trkpt lat="59.9072711" lon="17.8395534">
        <ele>26.0929</ele>
        <time>2012-05-06T09:38:05Z</time>
      </trkpt>
      <trkpt lat="59.9069025" lon="17.8398621">
        <ele>25.6123</ele>
        <time>2012-05-06T09:38:11Z</time>
      </trkpt>
      <trkpt lat="59.9064414" lon="17.8402788">
        <ele>23.209</ele>
        <time>2012-05-06T09:38:18Z</time>
      </trkpt>
      <trkpt lat="59.9061268" lon="17.8407289">
        <ele>21.767</ele>
        <time>2012-05-06T09:38:23Z</time>
      </trkpt>
      <trkpt lat="59.9059318" lon="17.8409796">
        <ele>20.8057</ele>
        <time>2012-05-06T09:38:26Z</time>
      </trkpt>
      <trkpt lat="59.9054865" lon="17.8412208">
        <ele>21.767</ele>
        <time>2012-05-06T09:38:32Z</time>
      </trkpt>
      <trkpt lat="59.9051927" lon="17.8413157">
        <ele>23.6896</ele>
        <time>2012-05-06T09:38:37Z</time>
      </trkpt>
      <trkpt lat="59.9049853" lon="17.8413971">
        <ele>26.5736</ele>
        <time>2012-05-06T09:38:42Z</time>
      </trkpt>
      <trkpt lat="59.9047503" lon="17.841526">
        <ele>28.0155</ele>
        <time>2012-05-06T09:38:49Z</time>
      </trkpt>
      <trkpt lat="59.9044369" lon="17.8417443">
        <ele>28.0155</ele>
        <time>2012-05-06T09:38:57Z</time>
      </trkpt>
      <trkpt lat="59.904295" lon="17.8418268">
        <ele>28.0155</ele>
        <time>2012-05-06T09:39:00Z</time>
      </trkpt>
      <trkpt lat="59.9041589" lon="17.8418662">
        <ele>28.4962</ele>
        <time>2012-05-06T09:39:03Z</time>
      </trkpt>
      <trkpt lat="59.9040758" lon="17.8418632">
        <ele>28.4962</ele>
        <time>2012-05-06T09:39:05Z</time>
      </trkpt>
      <trkpt lat="59.9038175" lon="17.8417929">
        <ele>30.4188</ele>
        <time>2012-05-06T09:39:11Z</time>
      </trkpt>
      <trkpt lat="59.9035288" lon="17.8414593">
        <ele>29.9381</ele>
        <time>2012-05-06T09:39:20Z</time>
      </trkpt>
      <trkpt lat="59.9032817" lon="17.8411985">
        <ele>29.4575</ele>
        <time>2012-05-06T09:39:27Z</time>
      </trkpt>
      <trkpt lat="59.9031467" lon="17.8411713">
        <ele>29.9381</ele>
        <time>2012-05-06T09:39:30Z</time>
      </trkpt>
      <trkpt lat="59.9026916" lon="17.841328">
        <ele>30.8995</ele>
        <time>2012-05-06T09:39:39Z</time>
      </trkpt>
      <trkpt lat="59.9024108" lon="17.8414466">
        <ele>33.3029</ele>
        <time>2012-05-06T09:39:45Z</time>
      </trkpt>
      <trkpt lat="59.9022878" lon="17.8414844">
        <ele>35.7061</ele>
        <time>2012-05-06T09:39:48Z</time>
      </trkpt>
      <trkpt lat="59.9020205" lon="17.8414639">
        <ele>34.7449</ele>
        <time>2012-05-06T09:39:56Z</time>
      </trkpt>
      <trkpt lat="59.9017469" lon="17.8414255">
        <ele>33.7834</ele>
        <time>2012-05-06T09:40:02Z</time>
      </trkpt>
      <trkpt lat="59.9013076" lon="17.8413602">
        <ele>34.7449</ele>
        <time>2012-05-06T09:40:11Z</time>
      </trkpt>
      <trkpt lat="59.9007813" lon="17.8412821">
        <ele>36.1868</ele>
        <time>2012-05-06T09:40:22Z</time>
      </trkpt>
      <trkpt lat="59.9003232" lon="17.8412379">
        <ele>39.5513</ele>
        <time>2012-05-06T09:40:33Z</time>
      </trkpt>
      <trkpt lat="59.9000663" lon="17.8412753">
        <ele>39.0707</ele>
        <time>2012-05-06T09:40:40Z</time>
      </trkpt>
      <trkpt lat="59.89982" lon="17.8413371">
        <ele>40.0321</ele>
        <time>2012-05-06T09:40:47Z</time>
      </trkpt>
      <trkpt lat="59.8996203" lon="17.8413839">
        <ele>40.0321</ele>
        <time>2012-05-06T09:40:54Z</time>
      </trkpt>
      <trkpt lat="59.8994599" lon="17.8415173">
        <ele>42.4354</ele>
        <time>2012-05-06T09:40:59Z</time>
      </trkpt>
      <trkpt lat="59.8992982" lon="17.8416898">
        <ele>42.916</ele>
        <time>2012-05-06T09:41:04Z</time>
      </trkpt>
      <trkpt lat="59.8990533" lon="17.8418702">
        <ele>45.7999</ele>
        <time>2012-05-06T09:41:10Z</time>
      </trkpt>
      <trkpt lat="59.8987257" lon="17.8420466">
        <ele>47.7225</ele>
        <time>2012-05-06T09:41:16Z</time>
      </trkpt>
      <trkpt lat="59.8983586" lon="17.8421688">
        <ele>46.2806</ele>
        <time>2012-05-06T09:41:22Z</time>
      </trkpt>
      <trkpt lat="59.897982" lon="17.8421715">
        <ele>43.8773</ele>
        <time>2012-05-06T09:41:28Z</time>
      </trkpt>
      <trkpt lat="59.8976898" lon="17.8422177">
        <ele>42.916</ele>
        <time>2012-05-06T09:41:33Z</time>
      </trkpt>
      <trkpt lat="59.8975216" lon="17.8423057">
        <ele>42.916</ele>
        <time>2012-05-06T09:41:36Z</time>
      </trkpt>
      <trkpt lat="59.8971453" lon="17.8426101">
        <ele>42.4354</ele>
        <time>2012-05-06T09:41:43Z</time>
      </trkpt>
      <trkpt lat="59.8969489" lon="17.8427362">
        <ele>41.9547</ele>
        <time>2012-05-06T09:41:46Z</time>
      </trkpt>
      <trkpt lat="59.8967937" lon="17.8427859">
        <ele>40.0321</ele>
        <time>2012-05-06T09:41:48Z</time>
      </trkpt>
      <trkpt lat="59.8963563" lon="17.8426886">
        <ele>34.2642</ele>
        <time>2012-05-06T09:41:53Z</time>
      </trkpt>
      <trkpt lat="59.8960198" lon="17.8426543">
        <ele>33.3029</ele>
        <time>2012-05-06T09:41:57Z</time>
      </trkpt>
      <trkpt lat="59.8958013" lon="17.8427014">
        <ele>33.7834</ele>
        <time>2012-05-06T09:42:00Z</time>
      </trkpt>
      <trkpt lat="59.8952189" lon="17.8429869">
        <ele>34.2642</ele>
        <time>2012-05-06T09:42:08Z</time>
      </trkpt>
      <trkpt lat="59.8947904" lon="17.8430395">
        <ele>34.2642</ele>
        <time>2012-05-06T09:42:14Z</time>
      </trkpt>
      <trkpt lat="59.8942827" lon="17.8429676">
        <ele>35.7061</ele>
        <time>2012-05-06T09:42:21Z</time>
      </trkpt>
      <trkpt lat="59.8937923" lon="17.842937">
        <ele>37.1481</ele>
        <time>2012-05-06T09:42:28Z</time>
      </trkpt>
      <trkpt lat="59.8932645" lon="17.8428035">
        <ele>38.5901</ele>
        <time>2012-05-06T09:42:36Z</time>
      </trkpt>
      <trkpt lat="59.8928806" lon="17.8426264">
        <ele>39.0707</ele>
        <time>2012-05-06T09:42:43Z</time>
      </trkpt>
      <trkpt lat="59.8924986" lon="17.8424492">
        <ele>38.1094</ele>
        <time>2012-05-06T09:42:51Z</time>
      </trkpt>
      <trkpt lat="59.8920865" lon="17.8422708">
        <ele>37.6287</ele>
        <time>2012-05-06T09:43:00Z</time>
      </trkpt>
      <trkpt lat="59.8916424" lon="17.842152">
        <ele>38.1094</ele>
        <time>2012-05-06T09:43:10Z</time>
      </trkpt>
      <trkpt lat="59.8913024" lon="17.8419997">
        <ele>38.5901</ele>
        <time>2012-05-06T09:43:18Z</time>
      </trkpt>
      <trkpt lat="59.890963" lon="17.8417037">
        <ele>37.1481</ele>
        <time>2012-05-06T09:43:26Z</time>
      </trkpt>
      <trkpt lat="59.8906982" lon="17.841338">
        <ele>34.7449</ele>
        <time>2012-05-06T09:43:32Z</time>
      </trkpt>
      <trkpt lat="59.8903696" lon="17.8408439">
        <ele>33.3029</ele>
        <time>2012-05-06T09:43:39Z</time>
      </trkpt>
      <trkpt lat="59.8901305" lon="17.840775">
        <ele>33.7834</ele>
        <time>2012-05-06T09:43:43Z</time>
      </trkpt>
      <trkpt lat="59.889974" lon="17.8409525">
        <ele>34.2642</ele>
        <time>2012-05-06T09:43:46Z</time>
      </trkpt>
      <trkpt lat="59.889849" lon="17.8413633">
        <ele>35.2255</ele>
        <time>2012-05-06T09:43:50Z</time>
      </trkpt>
      <trkpt lat="59.8898185" lon="17.8415966">
        <ele>35.2255</ele>
        <time>2012-05-06T09:43:52Z</time>
      </trkpt>
      <trkpt lat="59.8897461" lon="17.8424988">
        <ele>33.7834</ele>
        <time>2012-05-06T09:43:59Z</time>
      </trkpt>
      <trkpt lat="59.8897131" lon="17.8427993">
        <ele>32.8223</ele>
        <time>2012-05-06T09:44:01Z</time>
      </trkpt>
      <trkpt lat="59.8895425" lon="17.8432636">
        <ele>31.3801</ele>
        <time>2012-05-06T09:44:05Z</time>
      </trkpt>
      <trkpt lat="59.8893048" lon="17.8432977">
        <ele>31.8607</ele>
        <time>2012-05-06T09:44:08Z</time>
      </trkpt>
      <trkpt lat="59.8891691" lon="17.843199">
        <ele>32.8223</ele>
        <time>2012-05-06T09:44:10Z</time>
      </trkpt>
      <trkpt lat="59.8887941" lon="17.8430055">
        <ele>32.3416</ele>
        <time>2012-05-06T09:44:16Z</time>
      </trkpt>
      <trkpt lat="59.8884003" lon="17.8429226">
        <ele>33.3029</ele>
        <time>2012-05-06T09:44:22Z</time>
      </trkpt>
      <trkpt lat="59.888007" lon="17.8426313">
        <ele>31.8607</ele>
        <time>2012-05-06T09:44:28Z</time>
      </trkpt>
      <trkpt lat="59.887598" lon="17.8421264">
        <ele>29.4575</ele>
        <time>2012-05-06T09:44:35Z</time>
      </trkpt>
      <trkpt lat="59.8873709" lon="17.8416628">
        <ele>28.4962</ele>
        <time>2012-05-06T09:44:40Z</time>
      </trkpt>
      <trkpt lat="59.8872997" lon="17.8414653">
        <ele>28.0155</ele>
        <time>2012-05-06T09:44:42Z</time>
      </trkpt>
      <trkpt lat="59.8870539" lon="17.8410735">
        <ele>27.0543</ele>
        <time>2012-05-06T09:44:47Z</time>
      </trkpt>
      <trkpt lat="59.8868102" lon="17.8409688">
        <ele>27.5349</ele>
        <time>2012-05-06T09:44:51Z</time>
      </trkpt>
      <trkpt lat="59.8866833" lon="17.8409792">
        <ele>28.4962</ele>
        <time>2012-05-06T09:44:53Z</time>
      </trkpt>
      <trkpt lat="59.8861637" lon="17.8411931">
        <ele>30.4188</ele>
        <time>2012-05-06T09:45:02Z</time>
      </trkpt>
      <trkpt lat="59.8857184" lon="17.8412701">
        <ele>33.3029</ele>
        <time>2012-05-06T09:45:10Z</time>
      </trkpt>
      <trkpt lat="59.8852503" lon="17.8413256">
        <ele>34.2642</ele>
        <time>2012-05-06T09:45:18Z</time>
      </trkpt>
      <trkpt lat="59.8848023" lon="17.8413016">
        <ele>33.7834</ele>
        <time>2012-05-06T09:45:25Z</time>
      </trkpt>
      <trkpt lat="59.8844488" lon="17.8410888">
        <ele>33.3029</ele>
        <time>2012-05-06T09:45:31Z</time>
      </trkpt>
      <trkpt lat="59.8840901" lon="17.8406924">
        <ele>31.8607</ele>
        <time>2012-05-06T09:45:38Z</time>
      </trkpt>
      <trkpt lat="59.8837341" lon="17.8402224">
        <ele>30.4188</ele>
        <time>2012-05-06T09:45:46Z</time>
      </trkpt>
      <trkpt lat="59.88344" lon="17.8398171">
        <ele>29.9381</ele>
        <time>2012-05-06T09:45:54Z</time>
      </trkpt>
      <trkpt lat="59.8832048" lon="17.8394899">
        <ele>32.3416</ele>
        <time>2012-05-06T09:46:01Z</time>
      </trkpt>
      <trkpt lat="59.8830349" lon="17.8392607">
        <ele>33.7834</ele>
        <time>2012-05-06T09:46:07Z</time>
      </trkpt>
      <trkpt lat="59.8827678" lon="17.8390128">
        <ele>35.2255</ele>
        <time>2012-05-06T09:46:15Z</time>
      </trkpt>
      <trkpt lat="59.8825427" lon="17.8389406">
        <ele>34.2642</ele>
        <time>2012-05-06T09:46:20Z</time>
      </trkpt>
      <trkpt lat="59.8823091" lon="17.8388764">
        <ele>32.8223</ele>
        <time>2012-05-06T09:46:24Z</time>
      </trkpt>
      <trkpt lat="59.8821231" lon="17.8387393">
        <ele>31.3801</ele>
        <time>2012-05-06T09:46:27Z</time>
      </trkpt>
      <trkpt lat="59.8817292" lon="17.8381906">
        <ele>28.9769</ele>
        <time>2012-05-06T09:46:34Z</time>
      </trkpt>
      <trkpt lat="59.8812713" lon="17.8375165">
        <ele>27.0543</ele>
        <time>2012-05-06T09:46:43Z</time>
      </trkpt>
      <trkpt lat="59.8809146" lon="17.8369353">
        <ele>26.0929</ele>
        <time>2012-05-06T09:46:51Z</time>
      </trkpt>
      <trkpt lat="59.8805856" lon="17.8364294">
        <ele>24.1703</ele>
        <time>2012-05-06T09:46:58Z</time>
      </trkpt>
      <trkpt lat="59.880206" lon="17.8359847">
        <ele>23.6896</ele>
        <time>2012-05-06T09:47:05Z</time>
      </trkpt>
      <trkpt lat="59.8800028" lon="17.8358048">
        <ele>23.6896</ele>
        <time>2012-05-06T09:47:09Z</time>
      </trkpt>
      <trkpt lat="59.8796786" lon="17.8357342">
        <ele>24.1703</ele>
        <time>2012-05-06T09:47:15Z</time>
      </trkpt>
      <trkpt lat="59.8793316" lon="17.8357183">
        <ele>24.651</ele>
        <time>2012-05-06T09:47:20Z</time>
      </trkpt>
      <trkpt lat="59.8791388" lon="17.8356849">
        <ele>24.651</ele>
        <time>2012-05-06T09:47:23Z</time>
      </trkpt>
      <trkpt lat="59.8786384" lon="17.8354685">
        <ele>26.5736</ele>
        <time>2012-05-06T09:47:31Z</time>
      </trkpt>
      <trkpt lat="59.8781749" lon="17.8350855">
        <ele>28.4962</ele>
        <time>2012-05-06T09:47:38Z</time>
      </trkpt>
      <trkpt lat="59.8778894" lon="17.8347693">
        <ele>28.4962</ele>
        <time>2012-05-06T09:47:43Z</time>
      </trkpt>
      <trkpt lat="59.8773755" lon="17.8341205">
        <ele>27.5349</ele>
        <time>2012-05-06T09:47:53Z</time>
      </trkpt>
      <trkpt lat="59.8769636" lon="17.8336739">
        <ele>27.5349</ele>
        <time>2012-05-06T09:48:01Z</time>
      </trkpt>
      <trkpt lat="59.8766879" lon="17.8334791">
        <ele>28.4962</ele>
        <time>2012-05-06T09:48:07Z</time>
      </trkpt>
      <trkpt lat="59.8763183" lon="17.8332431">
        <ele>28.4962</ele>
        <time>2012-05-06T09:48:15Z</time>
      </trkpt>
      <trkpt lat="59.8759168" lon="17.832913">
        <ele>27.5349</ele>
        <time>2012-05-06T09:48:22Z</time>
      </trkpt>
      <trkpt lat="59.8756133" lon="17.8325831">
        <ele>27.0543</ele>
        <time>2012-05-06T09:48:28Z</time>
      </trkpt>
      <trkpt lat="59.8752034" lon="17.8323597">
        <ele>26.5736</ele>
        <time>2012-05-06T09:48:35Z</time>
      </trkpt>
      <trkpt lat="59.8746007" lon="17.8321984">
        <ele>27.0543</ele>
        <time>2012-05-06T09:48:45Z</time>
      </trkpt>
      <trkpt lat="59.8744949" lon="17.8321623">
        <ele>28.0155</ele>
        <time>2012-05-06T09:48:47Z</time>
      </trkpt>
      <trkpt lat="59.8741521" lon="17.8318458">
        <ele>28.4962</ele>
        <time>2012-05-06T09:48:55Z</time>
      </trkpt>
      <trkpt lat="59.8738138" lon="17.8314098">
        <ele>27.5349</ele>
        <time>2012-05-06T09:49:03Z</time>
      </trkpt>
      <trkpt lat="59.8734507" lon="17.8309878">
        <ele>26.5736</ele>
        <time>2012-05-06T09:49:10Z</time>
      </trkpt>
      <trkpt lat="59.8730067" lon="17.8306558">
        <ele>25.6123</ele>
        <time>2012-05-06T09:49:17Z</time>
      </trkpt>
      <trkpt lat="59.8725389" lon="17.8304319">
        <ele>24.1703</ele>
        <time>2012-05-06T09:49:24Z</time>
      </trkpt>
      <trkpt lat="59.8721918" lon="17.8301357">
        <ele>22.2476</ele>
        <time>2012-05-06T09:49:29Z</time>
      </trkpt>
      <trkpt lat="59.871649" lon="17.8296318">
        <ele>19.3638</ele>
        <time>2012-05-06T09:49:37Z</time>
      </trkpt>
      <trkpt lat="59.8711442" lon="17.8291651">
        <ele>18.8831</ele>
        <time>2012-05-06T09:49:45Z</time>
      </trkpt>
      <trkpt lat="59.8707595" lon="17.8287955">
        <ele>18.8831</ele>
        <time>2012-05-06T09:49:52Z</time>
      </trkpt>
      <trkpt lat="59.8703442" lon="17.8283887">
        <ele>19.3638</ele>
        <time>2012-05-06T09:50:01Z</time>
      </trkpt>
      <trkpt lat="59.8699582" lon="17.8279931">
        <ele>20.8057</ele>
        <time>2012-05-06T09:50:11Z</time>
      </trkpt>
      <trkpt lat="59.8696245" lon="17.8275142">
        <ele>22.2476</ele>
        <time>2012-05-06T09:50:20Z</time>
      </trkpt>
      <trkpt lat="59.869322" lon="17.8269742">
        <ele>22.2476</ele>
        <time>2012-05-06T09:50:29Z</time>
      </trkpt>
      <trkpt lat="59.8689554" lon="17.8263474">
        <ele>22.2476</ele>
        <time>2012-05-06T09:50:39Z</time>
      </trkpt>
      <trkpt lat="59.8686186" lon="17.8257668">
        <ele>22.7283</ele>
        <time>2012-05-06T09:50:49Z</time>
      </trkpt>
      <trkpt lat="59.8684645" lon="17.8255921">
        <ele>23.6896</ele>
        <time>2012-05-06T09:50:53Z</time>
      </trkpt>
      <trkpt lat="59.868218" lon="17.8255279">
        <ele>23.209</ele>
        <time>2012-05-06T09:50:58Z</time>
      </trkpt>
      <trkpt lat="59.8681094" lon="17.8255688">
        <ele>22.7283</ele>
        <time>2012-05-06T09:51:00Z</time>
      </trkpt>
      <trkpt lat="59.8676889" lon="17.825875">
        <ele>21.767</ele>
        <time>2012-05-06T09:51:07Z</time>
      </trkpt>
      <trkpt lat="59.8671241" lon="17.82628">
        <ele>20.325</ele>
        <time>2012-05-06T09:51:15Z</time>
      </trkpt>
      <trkpt lat="59.8666305" lon="17.8265515">
        <ele>20.325</ele>
        <time>2012-05-06T09:51:22Z</time>
      </trkpt>
      <trkpt lat="59.8662622" lon="17.8266275">
        <ele>19.8444</ele>
        <time>2012-05-06T09:51:28Z</time>
      </trkpt>
      <trkpt lat="59.8658592" lon="17.8265815">
        <ele>18.4023</ele>
        <time>2012-05-06T09:51:35Z</time>
      </trkpt>
      <trkpt lat="59.8653809" lon="17.8265108">
        <ele>19.8444</ele>
        <time>2012-05-06T09:51:43Z</time>
      </trkpt>
      <trkpt lat="59.8652716" lon="17.8264888">
        <ele>20.325</ele>
        <time>2012-05-06T09:51:45Z</time>
      </trkpt>
      <trkpt lat="59.8650796" lon="17.8263313">
        <ele>20.8057</ele>
        <time>2012-05-06T09:51:49Z</time>
      </trkpt>
      <trkpt lat="59.864774" lon="17.8257641">
        <ele>17.9218</ele>
        <time>2012-05-06T09:51:56Z</time>
      </trkpt>
      <trkpt lat="59.8644327" lon="17.8250103">
        <ele>14.557</ele>
        <time>2012-05-06T09:52:03Z</time>
      </trkpt>
      <trkpt lat="59.8641005" lon="17.8242836">
        <ele>13.5958</ele>
        <time>2012-05-06T09:52:10Z</time>
      </trkpt>
      <trkpt lat="59.8637064" lon="17.823404">
        <ele>13.1151</ele>
        <time>2012-05-06T09:52:19Z</time>
      </trkpt>
      <trkpt lat="59.8634049" lon="17.8226654">
        <ele>13.5958</ele>
        <time>2012-05-06T09:52:27Z</time>
      </trkpt>
      <trkpt lat="59.8631646" lon="17.8219992">
        <ele>14.0764</ele>
        <time>2012-05-06T09:52:35Z</time>
      </trkpt>
      <trkpt lat="59.8629757" lon="17.8213943">
        <ele>15.5184</ele>
        <time>2012-05-06T09:52:43Z</time>
      </trkpt>
      <trkpt lat="59.8628222" lon="17.8208798">
        <ele>17.4412</ele>
        <time>2012-05-06T09:52:51Z</time>
      </trkpt>
      <trkpt lat="59.8627299" lon="17.8205397">
        <ele>18.4023</ele>
        <time>2012-05-06T09:52:57Z</time>
      </trkpt>
      <trkpt lat="59.8626321" lon="17.8201612">
        <ele>18.8831</ele>
        <time>2012-05-06T09:53:04Z</time>
      </trkpt>
      <trkpt lat="59.8625656" lon="17.8198462">
        <ele>18.8831</ele>
        <time>2012-05-06T09:53:09Z</time>
      </trkpt>
      <trkpt lat="59.8624341" lon="17.8192625">
        <ele>17.9218</ele>
        <time>2012-05-06T09:53:18Z</time>
      </trkpt>
      <trkpt lat="59.8622741" lon="17.8189093">
        <ele>17.4412</ele>
        <time>2012-05-06T09:53:24Z</time>
      </trkpt>
      <trkpt lat="59.8620512" lon="17.818685">
        <ele>18.8831</ele>
        <time>2012-05-06T09:53:30Z</time>
      </trkpt>
      <trkpt lat="59.8618221" lon="17.8185179">
        <ele>20.325</ele>
        <time>2012-05-06T09:53:37Z</time>
      </trkpt>
      <trkpt lat="59.861587" lon="17.8183731">
        <ele>20.8057</ele>
        <time>2012-05-06T09:53:45Z</time>
      </trkpt>
      <trkpt lat="59.8613644" lon="17.8182291">
        <ele>20.8057</ele>
        <time>2012-05-06T09:53:50Z</time>
      </trkpt>
      <trkpt lat="59.8610225" lon="17.8178917">
        <ele>20.8057</ele>
        <time>2012-05-06T09:53:57Z</time>
      </trkpt>
      <trkpt lat="59.8607022" lon="17.8174654">
        <ele>19.3638</ele>
        <time>2012-05-06T09:54:04Z</time>
      </trkpt>
      <trkpt lat="59.8602316" lon="17.8168175">
        <ele>18.8831</ele>
        <time>2012-05-06T09:54:13Z</time>
      </trkpt>
      <trkpt lat="59.8598228" lon="17.8163726">
        <ele>18.4023</ele>
        <time>2012-05-06T09:54:21Z</time>
      </trkpt>
      <trkpt lat="59.8592882" lon="17.8159149">
        <ele>18.4023</ele>
        <time>2012-05-06T09:54:31Z</time>
      </trkpt>
      <trkpt lat="59.8587718" lon="17.8154903">
        <ele>18.4023</ele>
        <time>2012-05-06T09:54:41Z</time>
      </trkpt>
      <trkpt lat="59.8584505" lon="17.81524">
        <ele>18.8831</ele>
        <time>2012-05-06T09:54:48Z</time>
      </trkpt>
      <trkpt lat="59.8581622" lon="17.8150459">
        <ele>19.8444</ele>
        <time>2012-05-06T09:54:55Z</time>
      </trkpt>
      <trkpt lat="59.8579029" lon="17.8149018">
        <ele>19.3638</ele>
        <time>2012-05-06T09:55:00Z</time>
      </trkpt>
      <trkpt lat="59.8577583" lon="17.8146371">
        <ele>18.8831</ele>
        <time>2012-05-06T09:55:04Z</time>
      </trkpt>
      <trkpt lat="59.8577741" lon="17.8144325">
        <ele>18.8831</ele>
        <time>2012-05-06T09:55:06Z</time>
      </trkpt>
      <trkpt lat="59.8579285" lon="17.8133575">
        <ele>18.8831</ele>
        <time>2012-05-06T09:55:15Z</time>
      </trkpt>
      <trkpt lat="59.8580033" lon="17.8122672">
        <ele>18.8831</ele>
        <time>2012-05-06T09:55:23Z</time>
      </trkpt>
      <trkpt lat="59.8579927" lon="17.8111753">
        <ele>19.3638</ele>
        <time>2012-05-06T09:55:31Z</time>
      </trkpt>
      <trkpt lat="59.8579025" lon="17.810118">
        <ele>19.3638</ele>
        <time>2012-05-06T09:55:39Z</time>
      </trkpt>
      <trkpt lat="59.8576961" lon="17.808957">
        <ele>18.8831</ele>
        <time>2012-05-06T09:55:48Z</time>
      </trkpt>
      <trkpt lat="59.8574553" lon="17.8080093">
        <ele>18.4023</ele>
        <time>2012-05-06T09:55:56Z</time>
      </trkpt>
      <trkpt lat="59.8571131" lon="17.8068387">
        <ele>18.8831</ele>
        <time>2012-05-06T09:56:07Z</time>
      </trkpt>
      <trkpt lat="59.8567801" lon="17.8057386">
        <ele>19.8444</ele>
        <time>2012-05-06T09:56:18Z</time>
      </trkpt>
      <trkpt lat="59.8565049" lon="17.8048079">
        <ele>20.8057</ele>
        <time>2012-05-06T09:56:28Z</time>
      </trkpt>
      <trkpt lat="59.8563268" lon="17.8041408">
        <ele>21.767</ele>
        <time>2012-05-06T09:56:36Z</time>
      </trkpt>
      <trkpt lat="59.8562113" lon="17.8037661">
        <ele>22.2476</ele>
        <time>2012-05-06T09:56:41Z</time>
      </trkpt>
      <trkpt lat="59.8561497" lon="17.8033641">
        <ele>22.2476</ele>
        <time>2012-05-06T09:56:46Z</time>
      </trkpt>
      <trkpt lat="59.8560491" lon="17.8031042">
        <ele>22.2476</ele>
        <time>2012-05-06T09:56:50Z</time>
      </trkpt>
      <trkpt lat="59.8558573" lon="17.8025166">
        <ele>23.6896</ele>
        <time>2012-05-06T09:57:00Z</time>
      </trkpt>
      <trkpt lat="59.8557367" lon="17.8020015">
        <ele>24.1703</ele>
        <time>2012-05-06T09:57:08Z</time>
      </trkpt>
      <trkpt lat="59.8556742" lon="17.8016513">
        <ele>23.209</ele>
        <time>2012-05-06T09:57:14Z</time>
      </trkpt>
      <trkpt lat="59.8555452" lon="17.8011815">
        <ele>23.6896</ele>
        <time>2012-05-06T09:57:22Z</time>
      </trkpt>
      <trkpt lat="59.855343" lon="17.8004365">
        <ele>24.651</ele>
        <time>2012-05-06T09:57:34Z</time>
      </trkpt>
      <trkpt lat="59.8551576" lon="17.7997957">
        <ele>23.6896</ele>
        <time>2012-05-06T09:57:43Z</time>
      </trkpt>
      <trkpt lat="59.8549632" lon="17.7991138">
        <ele>23.209</ele>
        <time>2012-05-06T09:57:52Z</time>
      </trkpt>
      <trkpt lat="59.8547727" lon="17.7983903">
        <ele>22.2476</ele>
        <time>2012-05-06T09:58:00Z</time>
      </trkpt>
      <trkpt lat="59.8545443" lon="17.7975183">
        <ele>22.7283</ele>
        <time>2012-05-06T09:58:09Z</time>
      </trkpt>
      <trkpt lat="59.8544567" lon="17.7971243">
        <ele>22.7283</ele>
        <time>2012-05-06T09:58:13Z</time>
      </trkpt>
      <trkpt lat="59.8542625" lon="17.7965147">
        <ele>23.6896</ele>
        <time>2012-05-06T09:58:20Z</time>
      </trkpt>
      <trkpt lat="59.8540761" lon="17.7958225">
        <ele>23.6896</ele>
        <time>2012-05-06T09:58:28Z</time>
      </trkpt>
      <trkpt lat="59.8538528" lon="17.7950159">
        <ele>23.209</ele>
        <time>2012-05-06T09:58:37Z</time>
      </trkpt>
      <trkpt lat="59.8535531" lon="17.7940154">
        <ele>23.6896</ele>
        <time>2012-05-06T09:58:48Z</time>
      </trkpt>
      <trkpt lat="59.8533177" lon="17.7932993">
        <ele>22.7283</ele>
        <time>2012-05-06T09:58:55Z</time>
      </trkpt>
      <trkpt lat="59.8530636" lon="17.792585">
        <ele>23.209</ele>
        <time>2012-05-06T09:59:02Z</time>
      </trkpt>
      <trkpt lat="59.8526809" lon="17.791596">
        <ele>24.1703</ele>
        <time>2012-05-06T09:59:12Z</time>
      </trkpt>
      <trkpt lat="59.8523593" lon="17.7907861">
        <ele>24.651</ele>
        <time>2012-05-06T09:59:21Z</time>
      </trkpt>
      <trkpt lat="59.8520288" lon="17.7900258">
        <ele>25.6123</ele>
        <time>2012-05-06T09:59:30Z</time>
      </trkpt>
      <trkpt lat="59.8517303" lon="17.7892607">
        <ele>26.0929</ele>
        <time>2012-05-06T09:59:39Z</time>
      </trkpt>
      <trkpt lat="59.8514187" lon="17.7884819">
        <ele>26.5736</ele>
        <time>2012-05-06T09:59:49Z</time>
      </trkpt>
      <trkpt lat="59.8511369" lon="17.7877997">
        <ele>26.0929</ele>
        <time>2012-05-06T09:59:57Z</time>
      </trkpt>
      <trkpt lat="59.8508126" lon="17.7870206">
        <ele>25.1317</ele>
        <time>2012-05-06T10:00:05Z</time>
      </trkpt>
      <trkpt lat="59.8504906" lon="17.7862043">
        <ele>23.209</ele>
        <time>2012-05-06T10:00:13Z</time>
      </trkpt>
      <trkpt lat="59.8501837" lon="17.7853606">
        <ele>20.8057</ele>
        <time>2012-05-06T10:00:21Z</time>
      </trkpt>
      <trkpt lat="59.8499542" lon="17.7846181">
        <ele>18.8831</ele>
        <time>2012-05-06T10:00:27Z</time>
      </trkpt>
      <trkpt lat="59.8498278" lon="17.7841144">
        <ele>18.4023</ele>
        <time>2012-05-06T10:00:31Z</time>
      </trkpt>
      <trkpt lat="59.8496416" lon="17.7831692">
        <ele>16.9604</ele>
        <time>2012-05-06T10:00:38Z</time>
      </trkpt>
      <trkpt lat="59.8494045" lon="17.7820491">
        <ele>16.4797</ele>
        <time>2012-05-06T10:00:47Z</time>
      </trkpt>
      <trkpt lat="59.8491904" lon="17.7810084">
        <ele>16.4797</ele>
        <time>2012-05-06T10:00:56Z</time>
      </trkpt>
      <trkpt lat="59.8490386" lon="17.7800541">
        <ele>16.9604</ele>
        <time>2012-05-06T10:01:05Z</time>
      </trkpt>
      <trkpt lat="59.8490011" lon="17.779856">
        <ele>16.9604</ele>
        <time>2012-05-06T10:01:07Z</time>
      </trkpt>
      <trkpt lat="59.8489555" lon="17.7796761">
        <ele>16.9604</ele>
        <time>2012-05-06T10:01:09Z</time>
      </trkpt>
      <trkpt lat="59.848884" lon="17.7789819">
        <ele>16.9604</ele>
        <time>2012-05-06T10:01:16Z</time>
      </trkpt>
      <trkpt lat="59.8488524" lon="17.7780082">
        <ele>15.0377</ele>
        <time>2012-05-06T10:01:25Z</time>
      </trkpt>
      <trkpt lat="59.84881" lon="17.7772305">
        <ele>14.557</ele>
        <time>2012-05-06T10:01:32Z</time>
      </trkpt>
      <trkpt lat="59.8487606" lon="17.7763588">
        <ele>13.5958</ele>
        <time>2012-05-06T10:01:39Z</time>
      </trkpt>
      <trkpt lat="59.8486819" lon="17.7750965">
        <ele>10.7118</ele>
        <time>2012-05-06T10:01:49Z</time>
      </trkpt>
      <trkpt lat="59.8485785" lon="17.7740364">
        <ele>8.30859</ele>
        <time>2012-05-06T10:01:57Z</time>
      </trkpt>
      <trkpt lat="59.8484598" lon="17.7729316">
        <ele>5.42456</ele>
        <time>2012-05-06T10:02:05Z</time>
      </trkpt>
      <trkpt lat="59.8483458" lon="17.7721742">
        <ele>3.98267</ele>
        <time>2012-05-06T10:02:10Z</time>
      </trkpt>
      <trkpt lat="59.8481534" lon="17.7710825">
        <ele>3.50195</ele>
        <time>2012-05-06T10:02:18Z</time>
      </trkpt>
      <trkpt lat="59.8481337" lon="17.7709529">
        <ele>3.50195</ele>
        <time>2012-05-06T10:02:19Z</time>
      </trkpt>
      <trkpt lat="59.8481023" lon="17.7705627">
        <ele>3.50195</ele>
        <time>2012-05-06T10:02:22Z</time>
      </trkpt>
      <trkpt lat="59.8480298" lon="17.7700882">
        <ele>3.98267</ele>
        <time>2012-05-06T10:02:26Z</time>
      </trkpt>
      <trkpt lat="59.8479055" lon="17.7696755">
        <ele>4.46326</ele>
        <time>2012-05-06T10:02:30Z</time>
      </trkpt>
      <trkpt lat="59.8477775" lon="17.7689332">
        <ele>4.94385</ele>
        <time>2012-05-06T10:02:37Z</time>
      </trkpt>
      <trkpt lat="59.8476452" lon="17.7680921">
        <ele>5.42456</ele>
        <time>2012-05-06T10:02:45Z</time>
      </trkpt>
      <trkpt lat="59.847504" lon="17.7672475">
        <ele>5.90527</ele>
        <time>2012-05-06T10:02:53Z</time>
      </trkpt>
      <trkpt lat="59.8473573" lon="17.766349">
        <ele>6.86646</ele>
        <time>2012-05-06T10:03:02Z</time>
      </trkpt>
      <trkpt lat="59.8472159" lon="17.7654528">
        <ele>6.86646</ele>
        <time>2012-05-06T10:03:11Z</time>
      </trkpt>
      <trkpt lat="59.8472796" lon="17.7650717">
        <ele>6.86646</ele>
        <time>2012-05-06T10:03:15Z</time>
      </trkpt>
      <trkpt lat="59.8473152" lon="17.764993">
        <ele>7.34717</ele>
        <time>2012-05-06T10:03:16Z</time>
      </trkpt>
      <trkpt lat="59.8476821" lon="17.7642592">
        <ele>7.82788</ele>
        <time>2012-05-06T10:03:26Z</time>
      </trkpt>
      <trkpt lat="59.8480236" lon="17.7635437">
        <ele>8.30859</ele>
        <time>2012-05-06T10:03:36Z</time>
      </trkpt>
      <trkpt lat="59.8482914" lon="17.7629956">
        <ele>9.2699</ele>
        <time>2012-05-06T10:03:44Z</time>
      </trkpt>
      <trkpt lat="59.8483687" lon="17.762649">
        <ele>9.75061</ele>
        <time>2012-05-06T10:03:48Z</time>
      </trkpt>
      <trkpt lat="59.8483944" lon="17.7616329">
        <ele>9.75061</ele>
        <time>2012-05-06T10:03:59Z</time>
      </trkpt>
      <trkpt lat="59.8484178" lon="17.7608117">
        <ele>9.75061</ele>
        <time>2012-05-06T10:04:08Z</time>
      </trkpt>
      <trkpt lat="59.8484406" lon="17.7598911">
        <ele>9.75061</ele>
        <time>2012-05-06T10:04:18Z</time>
      </trkpt>
      <trkpt lat="59.8484696" lon="17.7588422">
        <ele>9.75061</ele>
        <time>2012-05-06T10:04:29Z</time>
      </trkpt>
      <trkpt lat="59.8484911" lon="17.7580393">
        <ele>10.2312</ele>
        <time>2012-05-06T10:04:38Z</time>
      </trkpt>
      <trkpt lat="59.8485016" lon="17.7571441">
        <ele>10.2312</ele>
        <time>2012-05-06T10:04:48Z</time>
      </trkpt>
      <trkpt lat="59.8484648" lon="17.7560967">
        <ele>9.75061</ele>
        <time>2012-05-06T10:04:59Z</time>
      </trkpt>
      <trkpt lat="59.8483696" lon="17.7549869">
        <ele>10.2312</ele>
        <time>2012-05-06T10:05:11Z</time>
      </trkpt>
      <trkpt lat="59.8482533" lon="17.7540301">
        <ele>10.7118</ele>
        <time>2012-05-06T10:05:22Z</time>
      </trkpt>
      <trkpt lat="59.8481489" lon="17.7532194">
        <ele>11.6732</ele>
        <time>2012-05-06T10:05:32Z</time>
      </trkpt>
      <trkpt lat="59.8480729" lon="17.7525725">
        <ele>13.1151</ele>
        <time>2012-05-06T10:05:41Z</time>
      </trkpt>
      <trkpt lat="59.848013" lon="17.752131">
        <ele>14.0764</ele>
        <time>2012-05-06T10:05:48Z</time>
      </trkpt>
      <trkpt lat="59.8479434" lon="17.7515601">
        <ele>14.557</ele>
        <time>2012-05-06T10:05:57Z</time>
      </trkpt>
      <trkpt lat="59.8478646" lon="17.750784">
        <ele>15.0377</ele>
        <time>2012-05-06T10:06:08Z</time>
      </trkpt>
      <trkpt lat="59.8478065" lon="17.7500325">
        <ele>14.0764</ele>
        <time>2012-05-06T10:06:18Z</time>
      </trkpt>
      <trkpt lat="59.8477657" lon="17.7493182">
        <ele>13.5958</ele>
        <time>2012-05-06T10:06:26Z</time>
      </trkpt>
      <trkpt lat="59.8477434" lon="17.7484614">
        <ele>12.6344</ele>
        <time>2012-05-06T10:06:35Z</time>
      </trkpt>
      <trkpt lat="59.8477323" lon="17.7476549">
        <ele>11.1925</ele>
        <time>2012-05-06T10:06:43Z</time>
      </trkpt>
      <trkpt lat="59.8477408" lon="17.7466142">
        <ele>9.75061</ele>
        <time>2012-05-06T10:06:52Z</time>
      </trkpt>
      <trkpt lat="59.8477574" lon="17.7454894">
        <ele>9.2699</ele>
        <time>2012-05-06T10:07:01Z</time>
      </trkpt>
      <trkpt lat="59.8477848" lon="17.7438653">
        <ele>10.7118</ele>
        <time>2012-05-06T10:07:14Z</time>
      </trkpt>
      <trkpt lat="59.847799" lon="17.7429571">
        <ele>11.6732</ele>
        <time>2012-05-06T10:07:22Z</time>
      </trkpt>
      <trkpt lat="59.8478117" lon="17.7419107">
        <ele>12.1538</ele>
        <time>2012-05-06T10:07:32Z</time>
      </trkpt>
      <trkpt lat="59.8478219" lon="17.7408923">
        <ele>12.6344</ele>
        <time>2012-05-06T10:07:42Z</time>
      </trkpt>
      <trkpt lat="59.8478372" lon="17.7399698">
        <ele>13.1151</ele>
        <time>2012-05-06T10:07:51Z</time>
      </trkpt>
      <trkpt lat="59.8478469" lon="17.7389693">
        <ele>13.1151</ele>
        <time>2012-05-06T10:08:01Z</time>
      </trkpt>
      <trkpt lat="59.8478604" lon="17.7381919">
        <ele>13.1151</ele>
        <time>2012-05-06T10:08:09Z</time>
      </trkpt>
      <trkpt lat="59.8478757" lon="17.7373484">
        <ele>13.1151</ele>
        <time>2012-05-06T10:08:18Z</time>
      </trkpt>
      <trkpt lat="59.8478868" lon="17.736508">
        <ele>13.1151</ele>
        <time>2012-05-06T10:08:27Z</time>
      </trkpt>
      <trkpt lat="59.8478987" lon="17.7357148">
        <ele>12.1538</ele>
        <time>2012-05-06T10:08:35Z</time>
      </trkpt>
      <trkpt lat="59.8479074" lon="17.7348228">
        <ele>10.2312</ele>
        <time>2012-05-06T10:08:42Z</time>
      </trkpt>
      <trkpt lat="59.8479251" lon="17.7342437">
        <ele>9.75061</ele>
        <time>2012-05-06T10:08:46Z</time>
      </trkpt>
      <trkpt lat="59.8479277" lon="17.7338387">
        <ele>8.30859</ele>
        <time>2012-05-06T10:08:49Z</time>
      </trkpt>
      <trkpt lat="59.8478483" lon="17.7331566">
        <ele>9.75061</ele>
        <time>2012-05-06T10:08:55Z</time>
      </trkpt>
      <trkpt lat="59.8477712" lon="17.7326667">
        <ele>11.6732</ele>
        <time>2012-05-06T10:09:01Z</time>
      </trkpt>
      <trkpt lat="59.8476704" lon="17.7321053">
        <ele>14.0764</ele>
        <time>2012-05-06T10:09:09Z</time>
      </trkpt>
      <trkpt lat="59.8475896" lon="17.7316767">
        <ele>16.4797</ele>
        <time>2012-05-06T10:09:16Z</time>
      </trkpt>
      <trkpt lat="59.8475131" lon="17.7312669">
        <ele>16.4797</ele>
        <time>2012-05-06T10:09:23Z</time>
      </trkpt>
      <trkpt lat="59.8474399" lon="17.7308833">
        <ele>17.4412</ele>
        <time>2012-05-06T10:09:30Z</time>
      </trkpt>
      <trkpt lat="59.8473781" lon="17.730515">
        <ele>17.4412</ele>
        <time>2012-05-06T10:09:36Z</time>
      </trkpt>
      <trkpt lat="59.8472963" lon="17.7299699">
        <ele>16.4797</ele>
        <time>2012-05-06T10:09:45Z</time>
      </trkpt>
      <trkpt lat="59.847248" lon="17.7294711">
        <ele>15.5184</ele>
        <time>2012-05-06T10:09:51Z</time>
      </trkpt>
      <trkpt lat="59.8471818" lon="17.7286284">
        <ele>14.557</ele>
        <time>2012-05-06T10:09:59Z</time>
      </trkpt>
      <trkpt lat="59.8470922" lon="17.7274047">
        <ele>12.6344</ele>
        <time>2012-05-06T10:10:09Z</time>
      </trkpt>
      <trkpt lat="59.8470272" lon="17.7265292">
        <ele>12.1538</ele>
        <time>2012-05-06T10:10:16Z</time>
      </trkpt>
      <trkpt lat="59.8469487" lon="17.7255114">
        <ele>12.1538</ele>
        <time>2012-05-06T10:10:24Z</time>
      </trkpt>
      <trkpt lat="59.8468475" lon="17.7242192">
        <ele>13.1151</ele>
        <time>2012-05-06T10:10:34Z</time>
      </trkpt>
      <trkpt lat="59.8467633" lon="17.7231333">
        <ele>13.5958</ele>
        <time>2012-05-06T10:10:43Z</time>
      </trkpt>
      <trkpt lat="59.8466948" lon="17.7223537">
        <ele>13.5958</ele>
        <time>2012-05-06T10:10:50Z</time>
      </trkpt>
      <trkpt lat="59.8466602" lon="17.7220273">
        <ele>14.0764</ele>
        <time>2012-05-06T10:10:53Z</time>
      </trkpt>
      <trkpt lat="59.8465166" lon="17.7215761">
        <ele>13.5958</ele>
        <time>2012-05-06T10:10:58Z</time>
      </trkpt>
      <trkpt lat="59.8464593" lon="17.7212712">
        <ele>14.0764</ele>
        <time>2012-05-06T10:11:01Z</time>
      </trkpt>
      <trkpt lat="59.8464351" lon="17.7204998">
        <ele>13.5958</ele>
        <time>2012-05-06T10:11:08Z</time>
      </trkpt>
      <trkpt lat="59.8464627" lon="17.7195752">
        <ele>13.1151</ele>
        <time>2012-05-06T10:11:16Z</time>
      </trkpt>
      <trkpt lat="59.8465105" lon="17.7183908">
        <ele>12.6344</ele>
        <time>2012-05-06T10:11:26Z</time>
      </trkpt>
      <trkpt lat="59.846525" lon="17.717055">
        <ele>12.6344</ele>
        <time>2012-05-06T10:11:37Z</time>
      </trkpt>
      <trkpt lat="59.8465258" lon="17.7162022">
        <ele>12.1538</ele>
        <time>2012-05-06T10:11:44Z</time>
      </trkpt>
      <trkpt lat="59.8464887" lon="17.7148725">
        <ele>11.6732</ele>
        <time>2012-05-06T10:11:55Z</time>
      </trkpt>
      <trkpt lat="59.8464399" lon="17.7136334">
        <ele>11.6732</ele>
        <time>2012-05-06T10:12:05Z</time>
      </trkpt>
      <trkpt lat="59.8464272" lon="17.7127613">
        <ele>11.6732</ele>
        <time>2012-05-06T10:12:12Z</time>
      </trkpt>
      <trkpt lat="59.8463569" lon="17.7120396">
        <ele>11.1925</ele>
        <time>2012-05-06T10:12:18Z</time>
      </trkpt>
      <trkpt lat="59.8463122" lon="17.7112252">
        <ele>11.6732</ele>
        <time>2012-05-06T10:12:25Z</time>
      </trkpt>
      <trkpt lat="59.84627" lon="17.7103593">
        <ele>11.1925</ele>
        <time>2012-05-06T10:12:33Z</time>
      </trkpt>
      <trkpt lat="59.84622" lon="17.7093736">
        <ele>11.6732</ele>
        <time>2012-05-06T10:12:43Z</time>
      </trkpt>
      <trkpt lat="59.8461572" lon="17.7085853">
        <ele>11.1925</ele>
        <time>2012-05-06T10:12:51Z</time>
      </trkpt>
      <trkpt lat="59.8460731" lon="17.7076926">
        <ele>9.75061</ele>
        <time>2012-05-06T10:12:59Z</time>
      </trkpt>
      <trkpt lat="59.8459977" lon="17.7068156">
        <ele>8.30859</ele>
        <time>2012-05-06T10:13:06Z</time>
      </trkpt>
      <trkpt lat="59.8459032" lon="17.7062073">
        <ele>7.82788</ele>
        <time>2012-05-06T10:13:11Z</time>
      </trkpt>
      <trkpt lat="59.8458473" lon="17.7053639">
        <ele>6.86646</ele>
        <time>2012-05-06T10:13:18Z</time>
      </trkpt>
      <trkpt lat="59.8458557" lon="17.7044579">
        <ele>6.86646</ele>
        <time>2012-05-06T10:13:26Z</time>
      </trkpt>
      <trkpt lat="59.8459018" lon="17.7038841">
        <ele>5.90527</ele>
        <time>2012-05-06T10:13:31Z</time>
      </trkpt>
      <trkpt lat="59.8458836" lon="17.7028424">
        <ele>5.42456</ele>
        <time>2012-05-06T10:13:40Z</time>
      </trkpt>
      <trkpt lat="59.8457877" lon="17.7023411">
        <ele>5.42456</ele>
        <time>2012-05-06T10:13:45Z</time>
      </trkpt>
      <trkpt lat="59.8455654" lon="17.7017701">
        <ele>4.94385</ele>
        <time>2012-05-06T10:13:52Z</time>
      </trkpt>
      <trkpt lat="59.8455071" lon="17.7016029">
        <ele>4.94385</ele>
        <time>2012-05-06T10:13:54Z</time>
      </trkpt>
      <trkpt lat="59.8454527" lon="17.7011175">
        <ele>4.94385</ele>
        <time>2012-05-06T10:13:59Z</time>
      </trkpt>
      <trkpt lat="59.8455111" lon="17.700824">
        <ele>5.42456</ele>
        <time>2012-05-06T10:14:02Z</time>
      </trkpt>
      <trkpt lat="59.8456345" lon="17.7004744">
        <ele>5.42456</ele>
        <time>2012-05-06T10:14:06Z</time>
      </trkpt>
      <trkpt lat="59.8459686" lon="17.7000097">
        <ele>5.90527</ele>
        <time>2012-05-06T10:14:13Z</time>
      </trkpt>
      <trkpt lat="59.8464773" lon="17.6993669">
        <ele>6.86646</ele>
        <time>2012-05-06T10:14:23Z</time>
      </trkpt>
      <trkpt lat="59.8468972" lon="17.6988433">
        <ele>6.38586</ele>
        <time>2012-05-06T10:14:31Z</time>
      </trkpt>
      <trkpt lat="59.8473532" lon="17.698257">
        <ele>5.42456</ele>
        <time>2012-05-06T10:14:40Z</time>
      </trkpt>
      <trkpt lat="59.847719" lon="17.697789">
        <ele>4.94385</ele>
        <time>2012-05-06T10:14:47Z</time>
      </trkpt>
      <trkpt lat="59.8482644" lon="17.6971083">
        <ele>6.86646</ele>
        <time>2012-05-06T10:14:57Z</time>
      </trkpt>
      <trkpt lat="59.8486074" lon="17.6967639">
        <ele>6.86646</ele>
        <time>2012-05-06T10:15:03Z</time>
      </trkpt>
      <trkpt lat="59.8488659" lon="17.6963367">
        <ele>7.34717</ele>
        <time>2012-05-06T10:15:09Z</time>
      </trkpt>
      <trkpt lat="59.8491518" lon="17.695857">
        <ele>8.78918</ele>
        <time>2012-05-06T10:15:16Z</time>
      </trkpt>
      <trkpt lat="59.8493413" lon="17.6956373">
        <ele>9.2699</ele>
        <time>2012-05-06T10:15:20Z</time>
      </trkpt>
      <trkpt lat="59.8496801" lon="17.6955493">
        <ele>9.75061</ele>
        <time>2012-05-06T10:15:26Z</time>
      </trkpt>
      <trkpt lat="59.8499499" lon="17.6956776">
        <ele>10.7118</ele>
        <time>2012-05-06T10:15:31Z</time>
      </trkpt>
      <trkpt lat="59.8500426" lon="17.6956546">
        <ele>11.6732</ele>
        <time>2012-05-06T10:15:34Z</time>
      </trkpt>
      <trkpt lat="59.8500241" lon="17.6954808">
        <ele>11.6732</ele>
        <time>2012-05-06T10:15:36Z</time>
      </trkpt>
      <trkpt lat="59.8500272" lon="17.6949026">
        <ele>11.6732</ele>
        <time>2012-05-06T10:15:42Z</time>
      </trkpt>
      <trkpt lat="59.8501035" lon="17.6947267">
        <ele>10.7118</ele>
        <time>2012-05-06T10:15:44Z</time>
      </trkpt>
      <trkpt lat="59.8502416" lon="17.6942885">
        <ele>9.75061</ele>
        <time>2012-05-06T10:15:48Z</time>
      </trkpt>
      <trkpt lat="59.8501692" lon="17.6938516">
        <ele>7.82788</ele>
        <time>2012-05-06T10:15:51Z</time>
      </trkpt>
      <trkpt lat="59.8501307" lon="17.6937487">
        <ele>7.34717</ele>
        <time>2012-05-06T10:15:52Z</time>
      </trkpt>
      <trkpt lat="59.8500512" lon="17.6935197">
        <ele>6.86646</ele>
        <time>2012-05-06T10:15:54Z</time>
      </trkpt>
      <trkpt lat="59.8499123" lon="17.6928606">
        <ele>7.34717</ele>
        <time>2012-05-06T10:16:00Z</time>
      </trkpt>
      <trkpt lat="59.8498903" lon="17.6927732">
        <ele>7.34717</ele>
        <time>2012-05-06T10:16:01Z</time>
      </trkpt>
      <trkpt lat="59.8497107" lon="17.6924235">
        <ele>8.30859</ele>
        <time>2012-05-06T10:16:07Z</time>
      </trkpt>
      <trkpt lat="59.84963" lon="17.6923877">
        <ele>7.82788</ele>
        <time>2012-05-06T10:16:09Z</time>
      </trkpt>
      <trkpt lat="59.8494733" lon="17.6922247">
        <ele>7.82788</ele>
        <time>2012-05-06T10:16:13Z</time>
      </trkpt>
      <trkpt lat="59.849408" lon="17.6921165">
        <ele>7.82788</ele>
        <time>2012-05-06T10:16:15Z</time>
      </trkpt>
      <trkpt lat="59.850152" lon="17.6897415">
        <ele>12.1538</ele>
        <time>2012-05-06T10:17:59Z</time>
      </trkpt>
      <trkpt lat="59.8501529" lon="17.6897348">
        <ele>10.7118</ele>
        <time>2012-05-06T10:18:00Z</time>
      </trkpt>
      <trkpt lat="59.8501571" lon="17.689731">
        <ele>9.75061</ele>
        <time>2012-05-06T10:18:01Z</time>
      </trkpt>
      <trkpt lat="59.8501408" lon="17.6897284">
        <ele>8.78918</ele>
        <time>2012-05-06T10:18:02Z</time>
      </trkpt>
    </trkseg>
  </trk>
</gpx>